Time,TemperatureF,DewpointF,PressureIn,WindDirection,WindDirectionDegrees,WindSpeedMPH,WindSpeedGustMPH,Humidity,HourlyPrecipIn,Conditions,Clouds,dailyrainin,SoftwareType,DateUTC
2013-12-13 00:01:00,26.1,19.0,30.36,North,5,0.0,1.0,74,0.00,,,0.00,weatherlink.com 1.10,2013-12-13 05:01:00,
2013-12-13 00:16:00,25.9,19.0,30.37,North,5,0.0,0.0,76,0.00,,,0.00,weatherlink.com 1.10,2013-12-13 05:16:00,
2013-12-13 00:32:00,24.9,20.0,30.36,North,5,0.0,0.0,80,0.00,,,0.00,weatherlink.com 1.10,2013-12-13 05:32:00,
2013-12-13 00:47:00,24.1,19.0,30.36,North,5,0.0,0.0,82,0.00,,,0.00,weatherlink.com 1.10,2013-12-13 05:47:00,
2013-12-13 01:02:00,23.8,20.0,30.36,North,5,0.0,0.0,85,0.00,,,0.00,weatherlink.com 1.10,2013-12-13 06:02:00,
2013-12-13 01:17:00,23.3,20.0,30.36,North,5,0.0,0.0,85,0.00,,,0.00,weatherlink.com 1.10,2013-12-13 06:17:00,
2013-12-13 01:32:00,23.2,20.0,30.36,North,5,0.0,0.0,86,0.00,,,0.00,weatherlink.com 1.10,2013-12-13 06:32:00,
2013-12-13 01:47:00,22.8,20.0,30.36,North,5,1.0,2.0,88,0.00,,,0.00,weatherlink.com 1.10,2013-12-13 06:47:00,
2013-12-13 02:02:00,24.0,20.0,30.36,North,5,0.0,2.0,86,0.00,,,0.00,weatherlink.com 1.10,2013-12-13 07:02:00,
2013-12-13 02:17:00,23.8,20.0,30.37,North,5,0.0,1.0,85,0.00,,,0.00,weatherlink.com 1.10,2013-12-13 07:17:00,
2013-12-13 02:32:00,23.0,20.0,30.37,North,5,0.0,0.0,87,0.00,,,0.00,weatherlink.com 1.10,2013-12-13 07:32:00,
2013-12-13 02:47:00,22.5,20.0,30.37,North,5,0.0,0.0,88,0.00,,,0.00,weatherlink.com 1.10,2013-12-13 07:47:00,
2013-12-13 03:02:00,22.2,19.0,30.37,North,5,0.0,1.0,88,0.00,,,0.00,weatherlink.com 1.10,2013-12-13 08:02:00,
2013-12-13 03:17:00,22.6,20.0,30.37,North,5,0.0,2.0,88,0.00,,,0.00,weatherlink.com 1.10,2013-12-13 08:17:00,
2013-12-13 03:32:00,22.6,20.0,30.37,North,5,0.0,1.0,88,0.00,,,0.00,weatherlink.com 1.10,2013-12-13 08:32:00,
2013-12-13 03:47:00,22.3,19.0,30.37,North,5,0.0,0.0,87,0.00,,,0.00,weatherlink.com 1.10,2013-12-13 08:47:00,
2013-12-13 04:02:00,21.6,19.0,30.36,North,5,0.0,0.0,89,0.00,,,0.00,weatherlink.com 1.10,2013-12-13 09:02:00,
2013-12-13 04:17:00,21.0,19.0,30.36,North,5,0.0,0.0,90,0.00,,,0.00,weatherlink.com 1.10,2013-12-13 09:17:00,
2013-12-13 04:32:00,21.3,19.0,30.36,North,5,0.0,1.0,91,0.00,,,0.00,weatherlink.com 1.10,2013-12-13 09:32:00,
2013-12-13 04:47:00,21.2,19.0,30.36,North,5,0.0,0.0,89,0.00,,,0.00,weatherlink.com 1.10,2013-12-13 09:47:00,
2013-12-13 05:02:00,21.3,19.0,30.35,North,5,0.0,1.0,90,0.00,,,0.00,weatherlink.com 1.10,2013-12-13 10:02:00,
2013-12-13 05:17:00,21.2,19.0,30.36,North,5,0.0,0.0,89,0.00,,,0.00,weatherlink.com 1.10,2013-12-13 10:17:00,
2013-12-13 05:32:00,20.8,19.0,30.36,North,5,0.0,1.0,91,0.00,,,0.00,weatherlink.com 1.10,2013-12-13 10:32:00,
2013-12-13 05:47:00,20.6,18.0,30.36,North,5,0.0,1.0,91,0.00,,,0.00,weatherlink.com 1.10,2013-12-13 10:47:00,
2013-12-13 06:02:00,20.6,18.0,30.36,North,5,0.0,0.0,91,0.00,,,0.00,weatherlink.com 1.10,2013-12-13 11:02:00,
2013-12-13 06:17:00,20.5,18.0,30.36,North,5,0.0,0.0,91,0.00,,,0.00,weatherlink.com 1.10,2013-12-13 11:17:00,
2013-12-13 06:32:00,20.3,18.0,30.36,North,5,0.0,1.0,91,0.00,,,0.00,weatherlink.com 1.10,2013-12-13 11:32:00,
2013-12-13 06:47:00,20.3,18.0,30.36,North,5,0.0,0.0,91,0.00,,,0.00,weatherlink.com 1.10,2013-12-13 11:47:00,
2013-12-13 07:02:00,19.9,18.0,30.36,North,5,0.0,1.0,92,0.00,,,0.00,weatherlink.com 1.10,2013-12-13 12:02:00,
2013-12-13 07:17:00,19.9,18.0,30.36,North,5,0.0,0.0,92,0.00,,,0.00,weatherlink.com 1.10,2013-12-13 12:17:00,
2013-12-13 07:32:00,20.3,18.0,30.37,North,11,0.0,3.0,92,0.00,,,0.00,weatherlink.com 1.10,2013-12-13 12:32:00,
2013-12-13 07:47:00,20.1,18.0,30.37,North,11,1.0,1.0,92,0.00,,,0.00,weatherlink.com 1.10,2013-12-13 12:47:00,
2013-12-13 08:02:00,20.2,18.0,30.37,North,11,0.0,1.0,92,0.00,,,0.00,weatherlink.com 1.10,2013-12-13 13:02:00,
2013-12-13 08:17:00,21.9,20.0,30.37,North,11,0.0,1.0,93,0.00,,,0.00,weatherlink.com 1.10,2013-12-13 13:17:00,
2013-12-13 08:32:00,23.9,22.0,30.37,North,11,0.0,0.0,91,0.00,,,0.00,weatherlink.com 1.10,2013-12-13 13:32:00,
2013-12-13 08:47:00,27.0,23.0,30.38,North,11,0.0,1.0,86,0.00,,,0.00,weatherlink.com 1.10,2013-12-13 13:47:00,
2013-12-13 09:03:00,29.2,23.0,30.37,North,11,1.0,2.0,77,0.00,,,0.00,weatherlink.com 1.10,2013-12-13 14:03:00,
2013-12-13 09:18:00,30.3,24.0,30.37,NE,38,1.0,3.0,76,0.00,,,0.00,weatherlink.com 1.10,2013-12-13 14:18:00,
2013-12-13 09:33:00,31.6,24.0,30.38,NE,42,2.0,3.0,73,0.00,,,0.00,weatherlink.com 1.10,2013-12-13 14:33:00,
2013-12-13 09:48:00,33.5,22.0,30.38,NE,41,0.0,2.0,63,0.00,,,0.00,weatherlink.com 1.10,2013-12-13 14:48:00,
2013-12-13 10:03:00,35.8,21.0,30.39,SSE,148,0.0,1.0,56,0.00,,,0.00,weatherlink.com 1.10,2013-12-13 15:03:00,
2013-12-13 10:18:00,37.9,22.0,30.39,SSE,148,0.0,2.0,53,0.00,,,0.00,weatherlink.com 1.10,2013-12-13 15:18:00,
2013-12-13 10:33:00,39.3,20.0,30.38,SW,214,3.0,5.0,46,0.00,,,0.00,weatherlink.com 1.10,2013-12-13 15:33:00,
2013-12-13 10:48:00,40.6,20.0,30.37,SSE,161,2.0,4.0,43,0.00,,,0.00,weatherlink.com 1.10,2013-12-13 15:48:00,
2013-12-13 11:03:00,41.4,19.0,30.36,South,175,3.0,7.0,41,0.00,,,0.00,weatherlink.com 1.10,2013-12-13 16:03:00,
2013-12-13 11:18:00,42.3,19.0,30.36,SE,144,4.0,7.0,40,0.00,,,0.00,weatherlink.com 1.10,2013-12-13 16:18:00,
2013-12-13 11:33:00,43.1,18.0,30.35,SW,214,4.0,7.0,37,0.00,,,0.00,weatherlink.com 1.10,2013-12-13 16:33:00,
2013-12-13 11:48:00,43.3,20.0,30.33,South,173,1.0,6.0,39,0.00,,,0.00,weatherlink.com 1.10,2013-12-13 16:48:00,
2013-12-13 12:03:00,44.5,18.0,30.33,South,185,4.0,7.0,35,0.00,,,0.00,weatherlink.com 1.10,2013-12-13 17:03:00,
2013-12-13 12:18:00,45.5,18.0,30.32,SSW,212,5.0,8.0,34,0.00,,,0.00,weatherlink.com 1.10,2013-12-13 17:18:00,
2013-12-13 12:33:00,45.7,19.0,30.31,SW,220,5.0,8.0,35,0.00,,,0.00,weatherlink.com 1.10,2013-12-13 17:33:00,
2013-12-13 12:48:00,46.0,19.0,30.31,WSW,242,3.0,9.0,34,0.00,,,0.00,weatherlink.com 1.10,2013-12-13 17:48:00,
2013-12-13 13:03:00,47.2,19.0,30.30,SW,215,9.0,10.0,32,0.00,,,0.00,weatherlink.com 1.10,2013-12-13 18:03:00,
2013-12-13 13:19:00,47.5,19.0,30.29,WSW,248,4.0,6.0,32,0.00,,,0.00,weatherlink.com 1.10,2013-12-13 18:19:00,
2013-12-13 13:34:00,48.5,20.0,30.29,SSE,159,6.0,9.0,32,0.00,,,0.00,weatherlink.com 1.10,2013-12-13 18:34:00,
2013-12-13 13:49:00,48.7,20.0,30.28,SW,223,3.0,10.0,32,0.00,,,0.00,weatherlink.com 1.10,2013-12-13 18:49:00,
2013-12-13 14:04:00,48.8,20.0,30.27,SW,217,7.0,9.0,32,0.00,,,0.00,weatherlink.com 1.10,2013-12-13 19:04:00,
2013-12-13 14:19:00,48.1,21.0,30.27,SSW,192,1.0,7.0,34,0.00,,,0.00,weatherlink.com 1.10,2013-12-13 19:19:00,
2013-12-13 14:34:00,49.3,21.0,30.26,WSW,243,5.0,10.0,33,0.00,,,0.00,weatherlink.com 1.10,2013-12-13 19:34:00,
2013-12-13 14:49:00,48.7,21.0,30.26,SW,220,6.0,7.0,34,0.00,,,0.00,weatherlink.com 1.10,2013-12-13 19:49:00,
2013-12-13 15:04:00,48.6,22.0,30.27,SSW,194,3.0,7.0,35,0.00,,,0.00,weatherlink.com 1.10,2013-12-13 20:04:00,
2013-12-13 15:19:00,50.1,23.0,30.27,SW,219,4.0,8.0,34,0.00,,,0.00,weatherlink.com 1.10,2013-12-13 20:19:00,
2013-12-13 15:34:00,49.3,24.0,30.26,SSE,167,5.0,7.0,37,0.00,,,0.00,weatherlink.com 1.10,2013-12-13 20:34:00,
2013-12-13 15:49:00,49.9,24.0,30.26,SSE,167,2.0,5.0,36,0.00,,,0.00,weatherlink.com 1.10,2013-12-13 20:49:00,
2013-12-13 16:04:00,50.1,24.0,30.26,South,187,1.0,5.0,36,0.00,,,0.00,weatherlink.com 1.10,2013-12-13 21:04:00,
2013-12-13 16:19:00,50.1,24.0,30.26,SSW,201,4.0,5.0,36,0.00,,,0.00,weatherlink.com 1.10,2013-12-13 21:19:00,
2013-12-13 16:34:00,49.7,24.0,30.26,South,174,2.0,6.0,37,0.00,,,0.00,weatherlink.com 1.10,2013-12-13 21:34:00,
2013-12-13 16:49:00,49.1,24.0,30.26,SSW,212,2.0,3.0,38,0.00,,,0.00,weatherlink.com 1.10,2013-12-13 21:49:00,
2013-12-13 17:04:00,47.4,26.0,30.26,SSW,212,0.0,1.0,44,0.00,,,0.00,weatherlink.com 1.10,2013-12-13 22:04:00,
2013-12-13 17:19:00,44.9,27.0,30.26,SSW,212,0.0,0.0,49,0.00,,,0.00,weatherlink.com 1.10,2013-12-13 22:19:00,
2013-12-13 17:34:00,42.0,27.0,30.26,SSW,212,0.0,1.0,56,0.00,,,0.00,weatherlink.com 1.10,2013-12-13 22:34:00,
2013-12-13 17:49:00,39.4,28.0,30.26,SSW,212,0.0,0.0,65,0.00,,,0.00,weatherlink.com 1.10,2013-12-13 22:49:00,
2013-12-13 18:04:00,37.9,28.0,30.27,SSW,212,0.0,1.0,68,0.00,,,0.00,weatherlink.com 1.10,2013-12-13 23:04:00,
2013-12-13 18:19:00,36.8,28.0,30.26,SSW,212,0.0,0.0,70,0.00,,,0.00,weatherlink.com 1.10,2013-12-13 23:19:00,
2013-12-13 18:34:00,35.9,28.0,30.27,SSW,212,0.0,2.0,74,0.00,,,0.00,weatherlink.com 1.10,2013-12-13 23:34:00,
2013-12-13 18:49:00,34.7,29.0,30.28,SSW,212,0.0,0.0,79,0.00,,,0.00,weatherlink.com 1.10,2013-12-13 23:49:00,
2013-12-13 19:04:00,34.2,28.0,30.28,SSW,212,0.0,0.0,78,0.00,,,0.00,weatherlink.com 1.10,2013-12-14 00:04:00,
2013-12-13 19:19:00,34.4,28.0,30.27,SSW,212,0.0,0.0,78,0.00,,,0.00,weatherlink.com 1.10,2013-12-14 00:19:00,
2013-12-13 19:34:00,34.8,29.0,30.28,SSW,212,0.0,1.0,79,0.00,,,0.00,weatherlink.com 1.10,2013-12-14 00:34:00,
2013-12-13 19:49:00,35.3,29.0,30.28,SSW,212,0.0,1.0,79,0.00,,,0.00,weatherlink.com 1.10,2013-12-14 00:49:00,
2013-12-13 20:04:00,35.9,29.0,30.29,SSW,212,2.0,2.0,76,0.00,,,0.00,weatherlink.com 1.10,2013-12-14 01:04:00,
2013-12-13 20:19:00,36.5,30.0,30.29,SSW,212,0.0,0.0,78,0.00,,,0.00,weatherlink.com 1.10,2013-12-14 01:19:00,
2013-12-13 20:34:00,36.6,30.0,30.29,SSW,212,0.0,0.0,77,0.00,,,0.00,weatherlink.com 1.10,2013-12-14 01:34:00,
2013-12-13 20:49:00,36.9,30.0,30.29,SSW,212,0.0,0.0,77,0.00,,,0.00,weatherlink.com 1.10,2013-12-14 01:49:00,
2013-12-13 21:04:00,37.1,31.0,30.29,SSW,212,0.0,0.0,77,0.00,,,0.00,weatherlink.com 1.10,2013-12-14 02:04:00,
2013-12-13 21:19:00,37.0,31.0,30.29,SSW,212,0.0,2.0,80,0.00,,,0.00,weatherlink.com 1.10,2013-12-14 02:19:00,
2013-12-13 21:34:00,36.4,30.0,30.29,SSW,212,0.0,0.0,76,0.00,,,0.00,weatherlink.com 1.10,2013-12-14 02:34:00,
2013-12-13 21:49:00,36.0,31.0,30.28,SSW,212,0.0,0.0,81,0.00,,,0.00,weatherlink.com 1.10,2013-12-14 02:49:00,
2013-12-13 22:04:00,36.0,31.0,30.29,SSW,212,0.0,0.0,83,0.00,,,0.00,weatherlink.com 1.10,2013-12-14 03:04:00,
2013-12-13 22:19:00,35.7,31.0,30.30,SSW,212,0.0,0.0,82,0.00,,,0.00,weatherlink.com 1.10,2013-12-14 03:19:00,
2013-12-13 22:34:00,35.8,31.0,30.29,SSW,212,0.0,1.0,83,0.00,,,0.00,weatherlink.com 1.10,2013-12-14 03:34:00,
2013-12-13 22:49:00,36.5,31.0,30.29,SSW,195,0.0,2.0,80,0.00,,,0.00,weatherlink.com 1.10,2013-12-14 03:49:00,
2013-12-13 23:04:00,36.4,30.0,30.27,SSW,195,0.0,0.0,79,0.00,,,0.00,weatherlink.com 1.10,2013-12-14 04:04:00,
2013-12-13 23:19:00,36.3,31.0,30.26,SSW,195,0.0,1.0,81,0.00,,,0.00,weatherlink.com 1.10,2013-12-14 04:19:00,
2013-12-13 23:34:00,36.2,31.0,30.27,SSW,195,0.0,2.0,82,0.00,,,0.00,weatherlink.com 1.10,2013-12-14 04:34:00,
2013-12-13 23:49:00,36.3,32.0,30.28,SSW,195,0.0,0.0,84,0.00,,,0.00,weatherlink.com 1.10,2013-12-14 04:49:00,